Time;durP1;ratioP1;P1;durP2;ratioP2;P2;SDS_P1;SDS_P2;PMS_P1;PMS_P2;Temp;Humidity;BMP_temperature;BMP_pressure;BME280_temperature;BME280_humidity;BME280_pressure;Samples;Min_cycle;Max_cycle;Signal;HPM_P1;HPM_P2
2024/03/16 00:01:36;;;;;;;20.40;15.63;;;;;;;3.89;100.00;93174.09;5089462;28;20055;-74
2024/03/16 00:04:03;;;;;;;19.48;15.32;;;;;;;3.86;100.00;93165.09;5068198;28;20044;-74
2024/03/16 00:06:30;;;;;;;26.70;18.48;;;;;;;3.90;100.00;93163.00;5065534;28;20048;-74
2024/03/16 00:08:57;;;;;;;31.65;20.67;;;;;;;3.92;100.00;93155.97;5067665;28;20402;-74
2024/03/16 00:11:24;;;;;;;23.48;17.42;;;;;;;3.99;100.00;93159.41;5068036;28;20056;-74
2024/03/16 00:13:51;;;;;;;24.90;17.70;;;;;;;4.02;100.00;93168.47;5062379;28;20541;-74
2024/03/16 00:16:19;;;;;;;24.90;16.77;;;;;;;4.02;100.00;93155.75;5096455;28;20052;-74
2024/03/16 00:18:46;;;;;;;19.38;14.20;;;;;;;4.07;100.00;93163.66;5066767;28;20089;-74
2024/03/16 00:21:13;;;;;;;20.88;15.95;;;;;;;4.06;100.00;93166.34;5068259;28;20048;-74
2024/03/16 00:23:40;;;;;;;23.50;16.67;;;;;;;4.06;100.00;93162.06;5068199;28;20098;-74
2024/03/16 00:26:07;;;;;;;27.55;18.38;;;;;;;4.03;100.00;93164.94;5065913;28;20098;-73
2024/03/16 00:28:40;;;;;;;25.55;17.38;;;;;;;3.56;100.00;93085.44;5062226;28;20048;-74
2024/03/16 00:31:07;;;;;;;24.85;17.33;;;;;;;4.10;100.00;93155.69;5063451;28;20044;-74
2024/03/16 00:33:34;;;;;;;22.80;15.75;;;;;;;4.13;100.00;93162.19;5063615;28;20074;-74
2024/03/16 00:36:01;;;;;;;21.25;15.05;;;;;;;4.12;100.00;93155.53;5069358;28;20048;-74
2024/03/16 00:38:29;;;;;;;23.73;16.88;;;;;;;4.07;100.00;93145.84;5072408;28;20059;-74
2024/03/16 00:40:56;;;;;;;20.50;15.05;;;;;;;4.00;100.00;93140.69;5064721;28;20098;-74
2024/03/16 00:43:23;;;;;;;22.55;15.82;;;;;;;4.10;100.00;93159.97;5071743;28;20593;-74
2024/03/16 00:45:50;;;;;;;19.50;15.10;;;;;;;4.11;100.00;93159.00;5071649;28;20097;-74
2024/03/16 00:48:16;;;;;;;21.55;14.40;;;;;;;4.01;100.00;93141.47;5068778;28;20062;-74
2024/03/16 00:50:43;;;;;;;23.98;16.58;;;;;;;4.05;100.00;93147.00;5070785;28;20368;-75
2024/03/16 00:53:10;;;;;;;20.33;15.18;;;;;;;4.00;100.00;93148.31;5071562;28;20063;-75
2024/03/16 00:55:37;;;;;;;22.60;15.15;;;;;;;3.87;100.00;93138.72;5066135;28;20059;-76
2024/03/16 00:58:04;;;;;;;18.98;14.10;;;;;;;4.01;100.00;93152.44;5064105;28;20082;-76
2024/03/16 01:00:31;;;;;;;18.65;13.95;;;;;;;3.97;100.00;93142.75;5064323;28;20044;-76
2024/03/16 01:02:59;;;;;;;18.55;13.70;;;;;;;3.95;100.00;93153.13;5069211;28;20103;-76
2024/03/16 01:05:28;;;;;;;16.88;13.00;;;;;;;3.96;100.00;93146.25;5069539;28;20052;-75
2024/03/16 01:07:54;;;;;;;17.15;13.25;;;;;;;3.87;100.00;93140.44;5070964;28;20135;-75
2024/03/16 01:10:21;;;;;;;16.38;12.52;;;;;;;3.89;100.00;93143.59;5071063;28;20119;-76
2024/03/16 01:12:48;;;;;;;17.52;12.98;;;;;;;3.89;100.00;93148.69;5064783;28;20131;-76
2024/03/16 01:15:16;;;;;;;15.77;11.35;;;;;;;3.92;100.00;93140.75;5070382;28;20054;-76
2024/03/16 01:17:43;;;;;;;15.90;12.35;;;;;;;3.04;100.00;93009.75;5071216;28;20052;-76
2024/03/16 01:20:10;;;;;;;15.45;12.43;;;;;;;3.87;100.00;93131.09;5066327;28;20575;-76
2024/03/16 01:22:38;;;;;;;15.80;11.52;;;;;;;3.92;100.00;93132.31;5070861;28;20055;-75
2024/03/16 01:25:05;;;;;;;19.05;14.40;;;;;;;3.99;100.00;93144.16;5070970;28;20055;-74
2024/03/16 01:27:33;;;;;;;18.63;14.45;;;;;;;3.97;100.00;93143.56;5069135;28;20044;-75
2024/03/16 01:30:00;;;;;;;22.17;16.38;;;;;;;3.97;100.00;93135.13;5067415;28;20512;-74
2024/03/16 01:32:27;;;;;;;18.67;13.88;;;;;;;3.92;100.00;93135.66;5070221;28;20145;-74
2024/03/16 01:34:54;;;;;;;20.52;14.43;;;;;;;3.89;100.00;93130.91;5068556;28;20048;-74
2024/03/16 01:37:21;;;;;;;63.95;26.42;;;;;;;3.85;100.00;93132.22;5070638;28;20468;-75
2024/03/16 01:39:49;;;;;;;23.40;14.98;;;;;;;3.82;100.00;93133.34;5068130;28;20044;-75
2024/03/16 01:42:16;;;;;;;19.05;13.57;;;;;;;3.80;100.00;93139.56;5068593;28;20794;-75
2024/03/16 01:44:50;;;;;;;19.83;13.43;;;;;;;3.80;100.00;93137.03;5068128;28;20063;-74
2024/03/16 01:47:17;;;;;;;19.33;12.77;;;;;;;3.77;100.00;93138.16;5066511;28;20051;-74
2024/03/16 01:49:44;;;;;;;16.75;13.07;;;;;;;3.76;100.00;93149.28;5066875;28;20380;-73
2024/03/16 01:52:10;;;;;;;17.75;12.85;;;;;;;3.73;100.00;93139.44;5070245;28;20052;-74
2024/03/16 01:54:37;;;;;;;18.67;12.73;;;;;;;3.70;100.00;93132.94;5070200;28;20044;-73
2024/03/16 01:57:04;;;;;;;19.67;14.73;;;;;;;3.58;100.00;93129.22;5067993;28;20426;-74
2024/03/16 01:59:32;;;;;;;21.42;15.00;;;;;;;3.66;100.00;93139.31;5063098;28;20059;-74
2024/03/16 02:02:02;;;;;;;42.55;26.50;;;;;;;3.77;100.00;93144.97;5094732;28;20048;-74
2024/03/16 02:04:29;;;;;;;42.60;27.90;;;;;;;3.79;100.00;93148.16;5069368;28;20048;-74
2024/03/16 02:06:56;;;;;;;37.95;25.42;;;;;;;3.78;100.00;93156.69;5069352;28;20039;-75
2024/03/16 02:09:23;;;;;;;39.47;26.17;;;;;;;3.85;100.00;93148.25;5067196;28;20058;-75
2024/03/16 02:11:50;;;;;;;31.83;21.00;;;;;;;3.84;100.00;93138.25;5066961;28;20060;-75
2024/03/16 02:14:17;;;;;;;27.92;19.05;;;;;;;3.86;100.00;93136.34;5067163;28;20063;-75
2024/03/16 02:16:44;;;;;;;27.15;19.45;;;;;;;3.97;100.00;93142.75;5065674;28;20048;-74
2024/03/16 02:19:11;;;;;;;24.70;17.65;;;;;;;4.05;100.00;93139.38;5061879;28;20066;-75
2024/03/16 02:21:38;;;;;;;22.67;15.88;;;;;;;4.07;100.00;93140.78;5064432;28;20093;-75
2024/03/16 02:24:05;;;;;;;22.92;16.75;;;;;;;4.00;100.00;93122.91;5065462;28;20043;-75
2024/03/16 02:26:32;;;;;;;23.23;16.90;;;;;;;3.82;100.00;93092.69;5059895;28;20044;-75
2024/03/16 02:29:02;;;;;;;24.98;15.80;;;;;;;4.05;100.00;93132.53;5060986;28;20054;-75
2024/03/16 02:31:29;;;;;;;19.05;14.75;;;;;;;4.11;100.00;93133.59;5064827;28;20043;-74
2024/03/16 02:33:58;;;;;;;22.98;15.55;;;;;;;4.09;100.00;93140.63;5056989;28;20063;-74
2024/03/16 02:36:25;;;;;;;22.10;15.60;;;;;;;3.99;100.00;93131.47;5063934;28;20464;-74
2024/03/16 02:38:52;;;;;;;21.50;15.77;;;;;;;3.99;100.00;93126.38;5064733;28;20600;-74
2024/03/16 02:41:19;;;;;;;52.00;34.28;;;;;;;4.01;100.00;93142.25;5065564;28;20057;-74
2024/03/16 02:43:46;;;;;;;19.05;14.68;;;;;;;4.04;100.00;93148.75;5061568;28;20054;-74
2024/03/16 02:46:13;;;;;;;19.58;14.10;;;;;;;4.03;100.00;93142.06;5062591;28;20789;-75
2024/03/16 02:48:40;;;;;;;19.45;15.07;;;;;;;3.99;100.00;93140.84;5061022;28;20044;-75
2024/03/16 02:51:07;;;;;;;24.17;16.83;;;;;;;3.97;100.00;93146.09;5067951;28;20163;-75
2024/03/16 02:53:35;;;;;;;41.67;28.58;;;;;;;3.92;100.00;93145.00;5069219;28;20541;-75
2024/03/16 02:56:02;;;;;;;33.35;23.55;;;;;;;3.92;100.00;93150.09;5068567;28;20109;-74
2024/03/16 02:58:28;;;;;;;29.35;20.02;;;;;;;3.92;100.00;93150.91;5062914;28;20056;-75
2024/03/16 03:00:55;;;;;;;30.02;19.77;;;;;;;3.97;100.00;93148.66;5061730;28;20521;-74
2024/03/16 03:03:22;;;;;;;32.60;23.45;;;;;;;3.95;100.00;93131.97;5068580;28;20056;-74
2024/03/16 03:05:50;;;;;;;27.95;19.83;;;;;;;3.97;100.00;93140.22;5068940;28;20523;-75
2024/03/16 03:08:17;;;;;;;27.38;19.15;;;;;;;3.95;100.00;93142.94;5061831;28;20048;-75
2024/03/16 03:10:44;;;;;;;26.98;19.20;;;;;;;3.89;100.00;93146.16;5065270;28;20056;-75
2024/03/16 03:13:11;;;;;;;27.25;19.33;;;;;;;3.99;100.00;93141.63;5063590;28;20051;-75
2024/03/16 03:15:38;;;;;;;28.30;20.30;;;;;;;4.05;100.00;93137.63;5085446;28;20036;-75
2024/03/16 03:18:05;;;;;;;26.25;20.15;;;;;;;4.05;100.00;93136.81;5065526;28;20052;-75
2024/03/16 03:20:32;;;;;;;21.70;17.63;;;;;;;3.98;100.00;93131.66;5065869;28;20043;-75
2024/03/16 03:22:59;;;;;;;19.50;15.20;;;;;;;4.10;100.00;93155.69;5063290;28;20078;-75
2024/03/16 03:25:27;;;;;;;15.20;12.45;;;;;;;4.08;100.00;93149.97;5064352;28;20044;-75
2024/03/16 03:27:54;;;;;;;15.20;11.13;;;;;;;3.94;100.00;93127.88;5063499;28;20044;-75
2024/03/16 03:30:21;;;;;;;14.55;11.70;;;;;;;4.03;100.00;93148.91;5095178;28;20048;-75
2024/03/16 03:32:48;;;;;;;17.17;12.15;;;;;;;3.95;100.00;93158.19;5066057;28;20036;-75
2024/03/16 03:35:15;;;;;;;16.85;13.05;;;;;;;3.85;100.00;93150.00;5066011;28;20040;-75
2024/03/16 03:37:41;;;;;;;47.53;27.05;;;;;;;3.62;100.00;93102.53;5063391;28;20040;-75
2024/03/16 03:40:09;;;;;;;21.48;14.70;;;;;;;3.88;100.00;93136.94;5064366;28;20070;-75
2024/03/16 03:42:39;;;;;;;33.10;19.85;;;;;;;3.70;100.00;93109.31;5066609;28;20430;-74
2024/03/16 03:45:24;;;;;;;20.17;14.20;;;;;;;3.87;100.00;93127.75;5062462;28;20048;-75
2024/03/16 03:48:00;;;;;;;18.80;12.90;;;;;;;3.95;100.00;93142.16;5067186;28;20040;-75
2024/03/16 03:50:28;;;;;;;23.45;17.25;;;;;;;3.88;100.00;93152.19;5064644;28;20059;-75
2024/03/16 03:52:58;;;;;;;25.20;17.60;;;;;;;3.80;100.00;93160.66;5099696;28;20518;-76
2024/03/16 03:55:28;;;;;;;29.63;22.95;;;;;;;3.79;100.00;93160.84;5067303;28;20079;-76
2024/03/16 03:57:55;;;;;;;30.42;22.75;;;;;;;3.76;100.00;93158.63;5061232;28;20054;-76
2024/03/16 04:00:22;;;;;;;28.02;21.83;;;;;;;3.83;100.00;93155.25;5063599;28;20140;-75
2024/03/16 04:02:49;;;;;;;25.35;19.17;;;;;;;3.87;100.00;93151.41;5067316;28;20076;-74
2024/03/16 04:05:16;;;;;;;28.27;20.10;;;;;;;3.95;100.00;93160.75;5062153;28;20139;-75
2024/03/16 04:07:43;;;;;;;87.18;47.10;;;;;;;4.05;100.00;93162.25;5061707;28;20054;-74
2024/03/16 04:10:10;;;;;;;41.85;25.38;;;;;;;4.05;100.00;93157.97;5062615;28;20047;-75
2024/03/16 04:12:38;;;;;;;25.63;20.50;;;;;;;4.10;100.00;93172.69;5065803;28;20050;-75
2024/03/16 04:15:05;;;;;;;27.70;20.50;;;;;;;4.25;100.00;93170.19;5070859;28;20051;-75
2024/03/16 04:17:32;;;;;;;28.40;20.30;;;;;;;4.19;100.00;93171.69;5063331;28;20119;-75
2024/03/16 04:19:59;;;;;;;26.73;20.90;;;;;;;4.16;100.00;93161.06;5100558;28;20057;-75
2024/03/16 04:22:26;;;;;;;26.92;20.15;;;;;;;4.17;100.00;93163.41;5070581;28;20959;-75
2024/03/16 04:24:53;;;;;;;26.63;20.75;;;;;;;4.20;100.00;93169.91;5065273;28;20047;-75
2024/03/16 04:27:20;;;;;;;28.27;21.55;;;;;;;4.19;100.00;93168.34;5069890;28;20054;-75
2024/03/16 04:29:48;;;;;;;27.40;20.20;;;;;;;4.18;100.00;93179.47;5066201;28;20066;-75
2024/03/16 04:32:15;;;;;;;27.90;20.60;;;;;;;4.13;100.00;93169.81;5067542;28;20048;-75
2024/03/16 04:34:42;;;;;;;29.15;22.35;;;;;;;4.17;100.00;93178.66;5097134;28;20048;-75
2024/03/16 04:37:09;;;;;;;26.15;19.92;;;;;;;4.35;100.00;93180.91;5069111;28;20044;-75
2024/03/16 04:39:43;;;;;;;25.58;19.05;;;;;;;4.21;100.00;93177.38;5066121;28;20060;-75
2024/03/16 04:42:10;;;;;;;30.75;21.85;;;;;;;4.21;100.00;93176.59;5066744;28;20080;-75
2024/03/16 04:44:37;;;;;;;106.88;68.15;;;;;;;4.21;100.00;93179.91;5069520;28;20054;-75
2024/03/16 04:47:05;;;;;;;56.65;41.53;;;;;;;4.17;100.00;93178.66;5068251;28;20571;-75
2024/03/16 04:49:31;;;;;;;43.83;30.15;;;;;;;4.10;100.00;93196.38;5067261;28;20071;-76
2024/03/16 04:51:59;;;;;;;27.08;19.30;;;;;;;3.94;100.00;93192.16;5063641;28;20278;-76
2024/03/16 04:54:26;;;;;;;23.63;17.27;;;;;;;3.82;100.00;93204.50;5068375;28;20048;-75
2024/03/16 04:56:53;;;;;;;27.55;19.73;;;;;;;3.67;100.00;93196.81;5102876;28;20040;-76
2024/03/16 04:59:20;;;;;;;25.55;20.13;;;;;;;3.69;100.00;93196.63;5066194;28;20824;-75
2024/03/16 05:01:47;;;;;;;31.23;20.38;;;;;;;3.80;100.00;93177.66;5068550;28;20046;-76
2024/03/16 05:04:14;;;;;;;25.58;20.90;;;;;;;3.95;100.00;93175.19;5066791;28;20130;-75
2024/03/16 05:06:41;;;;;;;33.03;23.17;;;;;;;4.08;100.00;93180.47;5067870;28;20069;-74
2024/03/16 05:09:09;;;;;;;34.33;22.42;;;;;;;4.12;100.00;93184.28;5063751;28;20048;-74
2024/03/16 05:11:52;;;;;;;;;;;;;;;;;;;;;
2024/03/16 05:14:20;;;;;;;33.33;24.30;;;;;;;3.49;100.00;93054.84;5059785;28;20048;-74
2024/03/16 05:16:47;;;;;;;40.72;28.35;;;;;;;4.41;100.00;93174.38;5059119;28;20426;-74
2024/03/16 05:19:14;;;;;;;53.33;33.17;;;;;;;4.46;100.00;93197.53;5060017;28;20056;-75
2024/03/16 05:21:42;;;;;;;57.20;38.67;;;;;;;4.46;100.00;93192.44;5090256;28;20048;-74
2024/03/16 05:24:09;;;;;;;40.20;28.83;;;;;;;4.39;100.00;93196.63;5093922;28;20073;-74
2024/03/16 05:26:36;;;;;;;35.35;24.38;;;;;;;4.49;100.00;93202.25;5060464;28;20498;-74
2024/03/16 05:29:05;;;;;;;37.75;25.95;;;;;;;4.60;100.00;93193.44;5055881;28;20151;-74
2024/03/16 05:31:32;;;;;;;40.00;27.75;;;;;;;4.55;100.00;93175.34;5086260;28;20627;-74
2024/03/16 05:34:00;;;;;;;38.95;27.98;;;;;;;4.69;100.00;93183.97;5061868;28;20055;-75
2024/03/16 05:36:28;;;;;;;39.65;29.33;;;;;;;4.71;100.00;93183.81;5055750;28;20059;-74
2024/03/16 05:38:55;;;;;;;44.45;30.60;;;;;;;4.74;100.00;93184.25;5062479;28;20145;-74
2024/03/16 05:41:22;;;;;;;42.45;29.73;;;;;;;4.81;100.00;93186.84;5059195;28;20066;-74
2024/03/16 05:43:51;;;;;;;48.28;32.08;;;;;;;4.86;100.00;93186.34;5059407;28;20134;-74
2024/03/16 05:46:18;;;;;;;42.97;29.67;;;;;;;4.81;100.00;93167.31;5059776;28;20168;-74
2024/03/16 05:48:44;;;;;;;38.05;27.42;;;;;;;5.00;100.00;93192.41;5062847;28;20043;-75
2024/03/16 05:51:11;;;;;;;37.42;25.08;;;;;;;4.96;100.00;93197.06;5054662;28;20078;-74
2024/03/16 05:53:38;;;;;;;37.60;23.98;;;;;;;4.95;100.00;93201.38;5064204;28;20054;-74
2024/03/16 05:56:05;;;;;;;32.72;21.67;;;;;;;4.99;100.00;93201.81;5062801;28;20478;-74
2024/03/16 05:58:32;;;;;;;41.00;31.95;;;;;;;5.16;100.00;93204.16;5092605;28;20151;-74
2024/03/16 06:01:00;;;;;;;40.60;28.48;;;;;;;5.07;100.00;93201.72;5058260;28;20087;-74
2024/03/16 06:03:28;;;;;;;36.38;24.77;;;;;;;4.99;100.00;93194.16;5057551;28;20522;-74
2024/03/16 06:05:55;;;;;;;38.45;24.90;;;;;;;5.26;100.00;93194.50;5061382;28;20059;-74
2024/03/16 06:08:22;;;;;;;24.38;18.55;;;;;;;5.23;100.00;93192.31;5059565;28;20101;-74
2024/03/16 06:10:49;;;;;;;31.88;21.52;;;;;;;5.05;100.00;93183.28;5060702;28;20044;-75
2024/03/16 06:13:16;;;;;;;45.63;27.45;;;;;;;5.28;100.00;93199.44;5055577;28;20411;-74
2024/03/16 06:15:43;;;;;;;35.80;26.38;;;;;;;5.20;100.00;93208.72;5057519;28;20145;-74
2024/03/16 06:18:10;;;;;;;35.47;24.08;;;;;;;5.52;100.00;93200.09;5087055;28;20055;-74
2024/03/16 06:20:37;;;;;;;29.33;21.15;;;;;;;5.72;100.00;93201.13;5054344;28;20127;-74
2024/03/16 06:23:06;;;;;;;33.55;20.70;;;;;;;5.86;100.00;93204.59;5056265;28;20059;-74
2024/03/16 06:25:40;;;;;;;25.10;20.15;;;;;;;5.94;100.00;93213.09;5060259;28;20055;-74
2024/03/16 06:28:09;;;;;;;24.45;17.13;;;;;;;5.70;100.00;93215.00;5061214;28;20131;-74
2024/03/16 06:30:36;;;;;;;29.08;19.25;;;;;;;5.84;100.00;93213.41;5058386;28;20051;-74
2024/03/16 06:33:10;;;;;;;31.08;21.50;;;;;;;5.89;100.00;93211.09;5059017;28;20135;-74
2024/03/16 06:35:37;;;;;;;30.92;22.30;;;;;;;6.10;100.00;93214.66;5088145;28;20066;-74
2024/03/16 06:38:04;;;;;;;32.78;21.58;;;;;;;6.33;100.00;93209.38;5051307;28;20559;-74
2024/03/16 06:40:31;;;;;;;33.88;23.08;;;;;;;6.59;100.00;93219.97;5055880;28;20167;-74
2024/03/16 06:42:58;;;;;;;34.47;21.20;;;;;;;6.89;100.00;93207.81;5057367;28;20044;-75
2024/03/16 06:45:25;;;;;;;30.55;21.88;;;;;;;7.24;100.00;93209.59;5053651;28;20048;-75
2024/03/16 06:47:52;;;;;;;30.20;18.60;;;;;;;7.51;100.00;93203.81;5083855;28;20421;-74
2024/03/16 06:50:21;;;;;;;32.17;20.30;;;;;;;7.85;100.00;93225.97;5052388;28;20531;-75
2024/03/16 06:52:48;;;;;;;28.65;19.25;;;;;;;8.06;100.00;93226.81;5050648;28;20040;-74
2024/03/16 06:55:17;;;;;;;29.80;20.35;;;;;;;8.21;100.00;93223.31;5057958;28;20048;-75
2024/03/16 06:57:44;;;;;;;30.25;19.30;;;;;;;8.32;100.00;93232.19;5056507;28;20055;-75
2024/03/16 07:00:12;;;;;;;35.28;18.27;;;;;;;8.60;98.95;93232.03;5051867;28;20051;-74
2024/03/16 07:02:39;;;;;;;28.38;17.90;;;;;;;8.60;98.07;93216.66;5053759;28;20513;-74
2024/03/16 07:05:07;;;;;;;25.42;17.85;;;;;;;8.76;99.18;93222.38;5050384;28;20048;-75
2024/03/16 07:07:34;;;;;;;27.35;18.73;;;;;;;8.85;97.20;93222.97;5051296;28;20193;-74
2024/03/16 07:10:01;;;;;;;22.50;16.10;;;;;;;9.06;95.69;93234.75;5054399;28;20048;-75
2024/03/16 07:12:28;;;;;;;24.13;16.02;;;;;;;9.17;93.98;93231.59;5056979;28;20471;-74
2024/03/16 07:14:55;;;;;;;27.17;16.98;;;;;;;9.27;92.25;93233.75;5050700;28;20152;-75
2024/03/16 07:17:26;;;;;;;28.13;19.70;;;;;;;9.37;89.28;93233.34;5052003;28;20052;-75
2024/03/16 07:19:53;;;;;;;40.55;22.60;;;;;;;9.55;91.17;93242.97;5053874;28;20059;-75
2024/03/16 07:22:20;;;;;;;38.63;22.70;;;;;;;9.80;90.57;93234.56;5051595;28;20063;-75
2024/03/16 07:24:49;;;;;;;35.42;20.73;;;;;;;9.73;90.07;93206.38;5054782;28;20149;-75
2024/03/16 07:27:16;;;;;;;37.67;20.25;;;;;;;9.96;87.24;93235.88;5071114;28;20084;-74
2024/03/16 07:29:44;;;;;;;30.90;19.48;;;;;;;10.22;87.92;93241.88;5051965;28;21068;-75
2024/03/16 07:32:11;;;;;;;28.33;19.02;;;;;;;10.37;87.62;93249.28;5054008;28;20429;-75
2024/03/16 07:34:37;;;;;;;26.05;16.42;;;;;;;10.44;84.85;93251.84;5052713;28;20052;-75
2024/03/16 07:37:04;;;;;;;25.77;16.33;;;;;;;10.52;84.44;93251.59;5053090;28;20131;-75
2024/03/16 07:39:31;;;;;;;33.92;17.90;;;;;;;10.59;83.46;93246.41;5056161;28;20058;-74
2024/03/16 07:41:58;;;;;;;30.00;19.55;;;;;;;10.67;83.77;93237.66;5049924;28;20048;-74
2024/03/16 07:44:25;;;;;;;32.00;17.83;;;;;;;10.89;83.74;93243.25;5051146;28;20059;-75
2024/03/16 07:46:52;;;;;;;33.17;18.70;;;;;;;11.05;84.17;93247.06;5050107;28;20059;-74
2024/03/16 07:49:20;;;;;;;30.52;17.40;;;;;;;11.11;78.76;93254.91;5053032;28;20044;-74
2024/03/16 07:51:47;;;;;;;26.60;15.45;;;;;;;11.29;82.80;93246.44;5051268;28;20053;-74
2024/03/16 07:54:15;;;;;;;33.10;18.50;;;;;;;11.38;81.14;93252.09;5051281;28;20054;-74
2024/03/16 07:56:42;;;;;;;34.53;16.75;;;;;;;11.54;80.72;93248.16;5052591;28;20108;-74
2024/03/16 07:59:09;;;;;;;25.42;13.18;;;;;;;11.54;75.33;93240.44;5050283;28;20067;-75
2024/03/16 08:01:36;;;;;;;32.92;16.35;;;;;;;11.22;74.05;93249.84;5050828;28;20048;-74
2024/03/16 08:04:03;;;;;;;29.33;15.13;;;;;;;11.41;77.27;93244.75;5052390;28;20045;-74
2024/03/16 08:06:30;;;;;;;25.73;13.50;;;;;;;10.98;73.97;93248.09;5058933;28;20052;-74
2024/03/16 08:08:57;;;;;;;26.75;14.27;;;;;;;11.27;73.50;93251.00;5050484;28;20054;-74
2024/03/16 08:11:24;;;;;;;24.70;13.80;;;;;;;11.46;76.06;93241.53;5051514;28;20048;-75
2024/03/16 08:13:51;;;;;;;21.67;13.38;;;;;;;11.73;78.05;93236.88;5050239;28;20128;-75
2024/03/16 08:16:18;;;;;;;18.40;12.63;;;;;;;11.97;77.97;93242.13;5053899;28;20053;-75
2024/03/16 08:18:46;;;;;;;15.65;9.98;;;;;;;12.17;74.80;93243.69;5053515;28;20058;-75
2024/03/16 08:21:14;;;;;;;15.75;9.98;;;;;;;12.31;75.48;93231.41;5053999;28;20058;-75
2024/03/16 08:23:42;;;;;;;16.27;10.57;;;;;;;12.54;74.92;93237.63;5051684;28;20049;-75
2024/03/16 08:26:09;;;;;;;16.42;10.52;;;;;;;12.66;73.72;93238.47;5051877;28;20047;-75
2024/03/16 08:28:36;;;;;;;16.60;10.18;;;;;;;12.73;70.20;93240.16;5055678;28;20139;-76
2024/03/16 08:31:04;;;;;;;15.65;10.82;;;;;;;12.72;72.26;93202.50;5063762;28;20542;-75
2024/03/16 08:33:32;;;;;;;15.95;10.57;;;;;;;13.09;72.19;93226.28;5050458;28;20052;-75
2024/03/16 08:35:59;;;;;;;14.23;8.63;;;;;;;13.26;68.86;93228.19;5050406;28;20044;-75
2024/03/16 08:38:26;;;;;;;13.18;9.52;;;;;;;13.38;70.57;93229.97;5085443;28;20497;-75
2024/03/16 08:40:54;;;;;;;15.23;8.80;;;;;;;13.57;72.14;93220.31;5090693;28;20053;-75
2024/03/16 08:43:21;;;;;;;12.98;8.43;;;;;;;13.63;69.22;93227.94;5054240;28;20094;-75
2024/03/16 08:45:48;;;;;;;9.30;5.63;;;;;;;13.71;68.94;93223.44;5083774;28;20051;-75
2024/03/16 08:48:15;;;;;;;8.25;4.75;;;;;;;13.51;66.95;93192.84;5061788;28;20051;-75
2024/03/16 08:50:42;;;;;;;6.60;4.13;;;;;;;13.74;67.07;93222.97;5054789;28;20041;-75
2024/03/16 08:53:08;;;;;;;5.18;3.83;;;;;;;13.75;66.28;93222.75;5053254;28;20045;-75
2024/03/16 08:55:35;;;;;;;8.20;4.40;;;;;;;13.87;64.98;93212.38;5090362;28;20055;-75
2024/03/16 08:58:03;;;;;;;8.73;5.18;;;;;;;14.09;64.97;93218.72;5061789;28;21073;-75
2024/03/16 09:00:30;;;;;;;9.07;4.70;;;;;;;14.29;62.76;93224.25;5064056;28;20056;-75
2024/03/16 09:02:57;;;;;;;9.15;4.50;;;;;;;14.37;62.77;93225.66;5089676;28;20048;-75
2024/03/16 09:05:25;;;;;;;7.45;4.68;;;;;;;14.51;63.60;93223.56;5059358;28;20075;-75
2024/03/16 09:07:52;;;;;;;6.32;4.45;;;;;;;14.70;63.89;93215.59;5054588;28;20132;-75
2024/03/16 09:10:20;;;;;;;7.82;4.30;;;;;;;14.85;63.59;93215.06;5058673;28;20062;-76
2024/03/16 09:12:47;;;;;;;7.07;4.22;;;;;;;15.07;61.75;93225.50;5056458;28;20563;-74
2024/03/16 09:15:15;;;;;;;4.90;3.70;;;;;;;15.19;59.21;93216.84;5060486;28;20049;-75
2024/03/16 09:17:42;;;;;;;17.10;8.10;;;;;;;15.34;60.95;93213.69;5056196;28;20048;-75
2024/03/16 09:20:10;;;;;;;12.27;7.20;;;;;;;15.40;60.77;93206.75;5058515;28;20044;-75
2024/03/16 09:22:37;;;;;;;7.78;4.82;;;;;;;15.28;56.34;93215.41;5055200;28;20414;-74
2024/03/16 09:25:05;;;;;;;6.93;4.47;;;;;;;15.57;61.64;93214.47;5052683;28;20498;-75
2024/03/16 09:27:32;;;;;;;7.15;3.90;;;;;;;15.53;57.72;93219.34;5053470;28;20055;-74
2024/03/16 09:29:59;;;;;;;6.25;3.35;;;;;;;15.82;58.27;93223.56;5088712;27;20155;-74
2024/03/16 09:32:26;;;;;;;10.18;5.13;;;;;;;15.88;58.68;93209.66;5052082;28;20805;-74
2024/03/16 09:34:53;;;;;;;5.80;3.72;;;;;;;16.16;56.97;93223.47;5086428;28;20173;-74
2024/03/16 09:37:21;;;;;;;6.28;3.80;;;;;;;16.28;56.71;93215.53;5086075;28;20080;-74
2024/03/16 09:39:48;;;;;;;6.05;3.67;;;;;;;16.30;58.45;93205.72;5053121;28;20059;-76
2024/03/16 09:42:15;;;;;;;6.28;3.75;;;;;;;16.45;57.14;93223.22;5054083;28;20132;-74
2024/03/16 09:44:41;;;;;;;4.63;3.40;;;;;;;16.46;55.96;93217.00;5053952;28;20062;-74
2024/03/16 09:47:09;;;;;;;5.40;3.58;;;;;;;16.62;56.50;93217.91;5053275;28;20050;-74
2024/03/16 09:49:36;;;;;;;6.53;3.42;;;;;;;16.51;56.39;93217.03;5055242;28;20052;-74
2024/03/16 09:52:04;;;;;;;5.82;2.90;;;;;;;16.20;55.76;93211.56;5052296;28;20493;-74
2024/03/16 09:54:32;;;;;;;4.90;3.33;;;;;;;16.06;56.74;93210.41;5053806;28;20049;-75
2024/03/16 09:56:59;;;;;;;4.57;3.08;;;;;;;15.91;55.42;93216.94;5087735;28;20532;-74
2024/03/16 09:59:26;;;;;;;5.85;3.42;;;;;;;15.90;54.97;93215.38;5055325;28;20922;-74
2024/03/16 10:01:53;;;;;;;6.68;4.03;;;;;;;16.01;56.20;93208.50;5093727;28;20048;-74
2024/03/16 10:04:20;;;;;;;6.80;3.17;;;;;;;15.99;55.86;93216.56;5061862;28;20438;-74
2024/03/16 10:06:49;;;;;;;5.22;3.13;;;;;;;16.08;53.51;93210.94;5054221;28;20044;-74
2024/03/16 10:09:15;;;;;;;4.45;3.05;;;;;;;16.08;54.96;93208.34;5087535;28;20054;-74
2024/03/16 10:11:43;;;;;;;5.38;3.20;;;;;;;16.10;55.23;93188.94;5092116;28;20561;-74
2024/03/16 10:14:11;;;;;;;4.10;3.00;;;;;;;15.88;57.58;93204.50;5085138;28;20056;-75
2024/03/16 10:16:40;;;;;;;4.50;2.92;;;;;;;15.95;56.26;93206.91;5056293;28;20052;-75
2024/03/16 10:19:07;;;;;;;6.43;3.78;;;;;;;16.05;54.10;93195.88;5084816;28;20125;-74
2024/03/16 10:21:34;;;;;;;6.15;3.53;;;;;;;15.78;56.85;93205.13;5086633;28;20057;-73
2024/03/16 10:24:01;;;;;;;5.53;3.22;;;;;;;15.77;54.71;93185.44;5052172;28;20054;-74
2024/03/16 10:26:30;;;;;;;5.30;2.90;;;;;;;15.97;52.69;93210.06;5086975;28;20055;-74
2024/03/16 10:28:58;;;;;;;15.18;4.95;;;;;;;16.06;55.51;93203.38;5053011;28;20054;-74
2024/03/16 10:31:26;;;;;;;4.78;3.22;;;;;;;16.08;56.42;93203.94;5053014;28;20052;-74
2024/03/16 10:33:53;;;;;;;4.57;3.25;;;;;;;16.19;56.08;93199.63;5052044;28;20516;-74
2024/03/16 10:36:21;;;;;;;8.35;4.70;;;;;;;16.37;55.71;93203.69;5036073;28;20049;-74
2024/03/16 10:38:50;;;;;;;6.38;4.15;;;;;;;16.43;56.56;93181.97;5052785;28;20425;-74
2024/03/16 10:41:17;;;;;;;7.05;3.30;;;;;;;16.56;53.95;93201.53;5055698;28;20056;-74
2024/03/16 10:43:44;;;;;;;6.70;2.92;;;;;;;16.50;55.67;93192.16;5053628;28;20058;-74
2024/03/16 10:46:11;;;;;;;6.40;3.55;;;;;;;16.53;55.81;93190.88;5058748;28;20054;-74
2024/03/16 10:48:38;;;;;;;8.20;4.07;;;;;;;16.61;56.31;93187.81;5089636;28;20607;-74
2024/03/16 10:51:05;;;;;;;7.03;3.25;;;;;;;16.77;54.39;93186.13;5051160;28;20048;-73
2024/03/16 10:53:41;;;;;;;;;;;;;;;;;;;;;
2024/03/16 10:56:08;;;;;;;9.93;4.20;;;;;;;17.02;54.89;93183.94;5054907;28;20102;-75
2024/03/16 10:58:35;;;;;;;9.45;4.00;;;;;;;17.15;54.75;93170.56;5084656;28;20055;-75
2024/03/16 11:01:02;;;;;;;5.03;3.05;;;;;;;17.14;52.81;93178.59;5056431;28;20402;-75
2024/03/16 11:03:30;;;;;;;8.98;3.75;;;;;;;17.18;54.38;93164.84;5065457;28;20475;-75
2024/03/16 11:06:09;;;;;;;8.35;3.70;;;;;;;17.57;53.69;93168.94;5062874;28;20056;-75
2024/03/16 11:08:41;;;;;;;7.30;3.95;;;;;;;16.74;49.46;93098.44;5092049;28;20052;-75
2024/03/16 11:11:10;;;;;;;6.15;3.88;;;;;;;16.88;48.41;93176.59;5052221;28;20071;-75
2024/03/16 11:13:37;;;;;;;8.40;4.20;;;;;;;17.09;53.66;93146.38;5056847;28;20506;-75
2024/03/16 11:16:42;;;;;;;9.85;4.30;;;;;;;17.18;50.73;93127.75;5088030;28;20142;-75
2024/03/16 11:19:09;;;;;;;13.00;7.28;;;;;;;16.91;50.53;93163.16;5028625;28;20044;-75
2024/03/16 11:21:37;;;;;;;11.82;4.80;;;;;;;16.67;50.38;93154.94;5089437;28;20048;-74
2024/03/16 11:24:05;;;;;;;9.18;4.72;;;;;;;15.17;51.69;93115.38;5051103;28;20588;-74
2024/03/16 11:26:34;;;;;;;11.93;4.55;;;;;;;15.49;51.10;93154.34;5056399;28;20045;-74